Hlavní strana
METAR-TAF:

METAR-TAF

Letiště :

Wrigley, Severozápadní teritoria, Kanada

zeměpisná šířka: 63-13N, zeměpisná délka: 123-26W, výška: 150 m

Aktuální stav počasí

Zpráva byla vytvořena před 7 hodinami a 20 minutami, v 23:00 UTC
Bezvětří
Teplota -20°C
Vlhkost vzduchu 77%
Tlak 1035 hPa
Viditelnost: 24.1 km
Jasno

METAR: CYWY 152300Z 00000KT 15SM SKC M20/M23 A3055 RMK -18.1/-21.4/TR/15 LAST OB/NXT 161500Z SLP365

Čas: 23:20 (06:20 UTC)


TAF: chybějící

Stav a předpovědi počasí z více než 4 000 letišť (zprávy METAR a TAF).

Červené a žluté tečky na mapě představují dostupné meteorologické stanice.

Když kurzor umístíte na tečku, zobrazí se název stanice.

Pak kliknutím zobrazíte stav a předpověď počasí.

Chcete-li změnit mapu, kliknutím na zelené tlačítko se znaménkem +mapu přiblížíte, kliknutím na zelené tlačítko se znaménkem – mapu oddálíte a kliknutím na zelené šipky přejdete na sousední mapy.


METAR-TAF: